Time;durP1;ratioP1;P1;durP2;ratioP2;P2;SDS_P1;SDS_P2;PMS_P1;PMS_P2;Temp;Humidity;BMP_temperature;BMP_pressure;BME280_temperature;BME280_humidity;BME280_pressure;Samples;Min_cycle;Max_cycle;Signal;HPM_P1;HPM_P2
2021/03/21 00:02:25;;;;;;;8.40;3.75;;;;;;;1.46;39.89;98100.47;10544631;28;20071;-51
2021/03/21 00:07:26;;;;;;;8.57;3.00;;;;;;;1.41;40.01;98096.56;10544144;28;20105;-52
2021/03/21 00:12:30;;;;;;;6.57;2.67;;;;;;;1.24;40.20;98090.03;10543177;28;20058;-53
2021/03/21 00:17:32;;;;;;;6.28;2.80;;;;;;;1.23;40.13;98089.22;10543160;28;20048;-53
2021/03/21 00:22:34;;;;;;;7.00;2.90;;;;;;;1.19;39.95;98076.59;10542772;28;20233;-53
2021/03/21 00:27:37;;;;;;;9.45;3.33;;;;;;;0.99;39.98;98072.88;10543157;28;20070;-52
2021/03/21 00:32:38;;;;;;;6.88;2.85;;;;;;;0.83;39.91;98071.38;10543217;28;20048;-52
2021/03/21 00:37:41;;;;;;;9.57;2.97;;;;;;;0.66;40.34;98062.22;10544133;28;20039;-53
2021/03/21 00:42:44;;;;;;;3.60;1.63;;;;;;;0.51;40.19;98065.06;10547814;28;20063;-60
2021/03/21 00:47:46;;;;;;;5.45;2.50;;;;;;;0.34;40.66;98069.66;10519492;28;20058;-52
2021/03/21 00:52:48;;;;;;;7.60;3.10;;;;;;;0.21;40.30;98063.69;10499493;28;20059;-55
2021/03/21 00:57:50;;;;;;;5.82;2.33;;;;;;;0.10;40.77;98061.03;10499607;28;20056;-53
2021/03/21 01:02:52;;;;;;;7.30;2.92;;;;;;;-0.03;41.08;98054.13;10503304;28;20048;-55
2021/03/21 01:07:55;;;;;;;6.15;2.38;;;;;;;-0.16;40.57;98047.28;10504165;28;20466;-54
2021/03/21 01:12:59;;;;;;;5.70;2.25;;;;;;;-0.28;40.64;98046.34;10503020;28;20048;-53
2021/03/21 01:18:01;;;;;;;6.82;3.00;;;;;;;-0.37;40.58;98026.31;10500940;28;20044;-56
2021/03/21 01:23:02;;;;;;;7.53;2.38;;;;;;;-0.45;41.03;98019.09;10502235;28;20072;-59
2021/03/21 01:28:19;;;;;;;8.27;2.70;;;;;;;-0.57;41.26;98020.75;10502293;28;20137;-51
2021/03/21 01:33:21;;;;;;;7.15;2.30;;;;;;;-0.64;40.69;98018.69;10501282;28;20130;-55
2021/03/21 01:38:24;;;;;;;6.07;2.28;;;;;;;-0.67;40.76;98004.22;10499914;28;20040;-53
2021/03/21 01:43:30;;;;;;;7.35;2.78;;;;;;;-0.60;41.17;97994.31;10500014;28;20045;-53
2021/03/21 01:48:38;;;;;;;7.43;3.05;;;;;;;-0.55;41.12;97992.25;10499982;28;20082;-52
2021/03/21 01:53:42;;;;;;;6.88;2.13;;;;;;;-0.56;41.46;97991.41;10500800;28;20048;-54
2021/03/21 01:58:49;;;;;;;5.45;2.30;;;;;;;-0.52;41.27;97982.56;10499744;28;20036;-51
2021/03/21 02:03:51;;;;;;;15.18;3.58;;;;;;;-0.39;41.26;97976.56;10505143;28;20048;-53
2021/03/21 02:08:55;;;;;;;6.50;2.17;;;;;;;-0.29;41.46;97967.25;10507998;28;20049;-53
2021/03/21 02:14:05;;;;;;;6.32;2.50;;;;;;;-0.25;41.41;97954.03;10508094;28;20131;-51
2021/03/21 02:19:19;;;;;;;6.55;2.13;;;;;;;-0.26;41.31;97948.97;10509178;28;20054;-52
2021/03/21 02:24:46;;;;;;;6.68;2.35;;;;;;;-0.23;41.59;97941.00;10506671;28;20377;-56
2021/03/21 02:29:53;;;;;;;6.38;2.75;;;;;;;-0.15;41.06;97936.13;10506450;28;20503;-55
2021/03/21 02:35:08;;;;;;;5.05;1.90;;;;;;;0.00;41.00;97936.84;10508174;28;20126;-53
2021/03/21 02:40:22;;;;;;;6.00;1.80;;;;;;;0.08;41.40;97933.69;10508128;28;20051;-54
2021/03/21 02:45:28;;;;;;;6.63;2.08;;;;;;;-0.04;41.00;97928.44;10507274;28;20176;-53
2021/03/21 02:50:35;;;;;;;5.85;2.15;;;;;;;-0.13;41.07;97926.50;10507166;28;20052;-54
2021/03/21 02:55:39;;;;;;;4.95;1.98;;;;;;;-0.24;41.06;97923.88;10505967;28;20556;-54
2021/03/21 03:00:50;;;;;;;6.78;1.80;;;;;;;-0.34;41.12;97923.69;10505690;28;20047;-56
2021/03/21 03:05:56;;;;;;;4.53;1.88;;;;;;;-0.45;41.45;97915.84;10504282;28;20542;-53
2021/03/21 03:11:03;;;;;;;4.30;1.88;;;;;;;-0.55;41.19;97905.34;10504232;28;20040;-52
2021/03/21 03:16:14;;;;;;;5.50;1.88;;;;;;;-0.52;41.48;97905.13;10505651;28;20469;-55
2021/03/21 03:21:21;;;;;;;4.53;1.60;;;;;;;-0.48;41.44;97900.56;10508358;28;20160;-56
2021/03/21 03:26:28;;;;;;;4.13;1.90;;;;;;;-0.44;41.56;97896.84;10504120;28;20064;-53
2021/03/21 03:31:36;;;;;;;4.93;1.85;;;;;;;-0.51;42.39;97883.53;10504520;28;20051;-52
2021/03/21 03:36:37;;;;;;;5.47;1.70;;;;;;;-0.37;42.36;97880.00;10502937;28;20044;-53
2021/03/21 03:41:43;;;;;;;6.78;1.98;;;;;;;-0.20;42.36;97870.25;10502037;28;20400;-56
2021/03/21 03:46:51;;;;;;;6.93;2.20;;;;;;;-0.08;42.23;97872.78;10501076;28;20052;-51
2021/03/21 03:52:25;;;;;;;7.75;2.53;;;;;;;0.08;42.38;97867.34;10502782;28;20044;-53
2021/03/21 03:57:31;;;;;;;4.65;1.85;;;;;;;1.31;43.12;97861.66;10502600;28;20045;-53
2021/03/21 04:02:44;;;;;;;7.07;2.17;;;;;;;2.47;41.98;97854.22;10501227;28;20048;-54
2021/03/21 04:07:58;;;;;;;5.22;2.20;;;;;;;3.40;42.11;97842.97;10501957;28;20381;-54
2021/03/21 04:13:08;;;;;;;4.88;1.90;;;;;;;3.51;40.23;97836.88;10500861;28;20538;-53
2021/03/21 04:18:18;;;;;;;5.50;1.90;;;;;;;3.22;40.31;97834.16;10502175;28;20502;-53
2021/03/21 04:23:25;;;;;;;4.97;1.80;;;;;;;3.08;40.60;97824.09;10502326;28;20064;-60
2021/03/21 04:28:35;;;;;;;4.68;1.60;;;;;;;3.01;40.11;97823.81;10499782;28;20045;-55
2021/03/21 04:33:43;;;;;;;5.13;1.77;;;;;;;3.10;40.67;97806.63;10499946;28;20058;-52
2021/03/21 04:38:48;;;;;;;6.93;2.15;;;;;;;3.04;40.52;97797.59;10500091;28;20431;-54
2021/03/21 04:43:56;;;;;;;4.95;2.03;;;;;;;3.15;40.18;97792.31;10499989;28;20057;-54
2021/03/21 04:48:59;;;;;;;5.35;2.33;;;;;;;3.35;40.53;97787.19;10501970;28;20052;-54
2021/03/21 04:54:05;;;;;;;4.70;1.50;;;;;;;3.57;39.85;97786.13;10499660;28;20052;-53
2021/03/21 04:59:14;;;;;;;4.72;2.03;;;;;;;4.58;40.22;97783.16;10499741;28;20143;-52
2021/03/21 05:04:21;;;;;;;4.78;1.63;;;;;;;6.33;38.61;97771.81;10499946;28;20052;-55
2021/03/21 05:09:26;;;;;;;5.95;2.22;;;;;;;6.87;37.32;97775.16;10500039;28;20056;-53
2021/03/21 05:14:35;;;;;;;7.32;2.90;;;;;;;7.02;36.62;97766.72;10499788;28;20053;-68
2021/03/21 05:19:46;;;;;;;5.30;1.75;;;;;;;7.18;36.52;97761.59;10503553;28;20051;-53
2021/03/21 05:24:56;;;;;;;5.60;2.00;;;;;;;8.01;36.21;97758.22;10527587;28;20056;-66
2021/03/21 05:30:02;;;;;;;4.90;2.15;;;;;;;8.59;34.69;97753.81;10542840;28;20380;-54
2021/03/21 05:35:07;;;;;;;4.78;2.22;;;;;;;9.28;33.52;97748.91;10541362;28;20044;-55
2021/03/21 05:40:42;;;;;;;4.85;2.15;;;;;;;9.45;32.83;97737.31;10546801;28;20040;-53
2021/03/21 05:46:13;;;;;;;5.18;2.25;;;;;;;10.10;32.00;97731.69;10542742;28;20093;-56
2021/03/21 05:51:56;;;;;;;5.97;2.45;;;;;;;11.04;30.52;97726.06;10549546;28;20044;-53
2021/03/21 05:57:15;;;;;;;7.20;2.00;;;;;;;11.37;29.56;97718.59;10549018;28;20118;-55
2021/03/21 06:02:54;;;;;;;6.30;2.83;;;;;;;12.23;29.28;97699.47;10550733;28;20492;-55
2021/03/21 06:08:19;;;;;;;5.00;2.08;;;;;;;15.64;28.06;97685.56;10546650;28;20341;-53
2021/03/21 06:13:30;;;;;;;;;;;;;;;17.94;27.17;97673.91;10554593;28;20044;-55
2021/03/21 06:18:41;;;;;;;5.90;2.20;;;;;;;17.94;23.49;97666.75;10552541;28;19924;-55
2021/03/21 06:24:17;;;;;;;4.32;1.45;;;;;;;18.21;22.74;97653.06;10547428;28;20060;-54
2021/03/21 06:29:52;;;;;;;5.03;2.00;;;;;;;19.62;20.57;97650.19;10547741;28;20097;-55
2021/03/21 06:35:06;;;;;;;6.22;1.80;;;;;;;20.12;17.99;97638.78;10551406;28;20056;-55
2021/03/21 06:40:34;;;;;;;5.20;1.80;;;;;;;21.21;17.56;97632.03;10548099;28;20448;-56
2021/03/21 06:46:03;;;;;;;4.40;1.92;;;;;;;22.39;17.57;97611.78;10544929;28;20048;-54
2021/03/21 06:51:27;;;;;;;4.15;1.70;;;;;;;25.91;15.01;97613.59;10544797;28;20144;-56
2021/03/21 06:57:00;;;;;;;5.47;1.95;;;;;;;27.13;13.88;97589.19;10547087;28;20058;-56
2021/03/21 07:02:28;;;;;;;5.60;2.10;;;;;;;29.60;12.26;97579.97;10541620;28;20048;-56
2021/03/21 07:08:07;;;;;;;4.68;1.70;;;;;;;27.60;11.89;97579.38;10544277;28;20047;-54
2021/03/21 07:13:45;;;;;;;4.60;1.55;;;;;;;28.26;11.15;97574.81;10543384;28;20059;-56
2021/03/21 07:19:25;;;;;;;3.90;1.58;;;;;;;29.57;10.63;97567.03;10555841;28;20055;-55
2021/03/21 07:24:57;;;;;;;4.43;1.55;;;;;;;30.02;9.12;97548.91;10543456;28;20055;-61
2021/03/21 07:30:03;;;;;;;4.45;1.75;;;;;;;31.40;8.91;97545.09;10545852;28;20040;-55
2021/03/21 07:35:17;;;;;;;5.07;1.55;;;;;;;31.16;7.46;97529.22;10546191;28;20100;-57
2021/03/21 07:40:34;;;;;;;5.70;2.00;;;;;;;31.56;7.67;97514.69;10543275;28;20143;-57
2021/03/21 07:45:55;;;;;;;4.40;1.60;;;;;;;32.63;7.45;97507.53;10542879;28;20054;-57
2021/03/21 07:51:08;;;;;;;4.97;1.77;;;;;;;33.61;6.85;97511.66;10543859;28;20135;-57
2021/03/21 07:56:16;;;;;;;6.00;1.70;;;;;;;34.10;6.14;97500.13;10542337;28;20082;-56
2021/03/21 08:01:20;;;;;;;4.03;1.20;;;;;;;33.86;6.40;97492.66;10544941;28;20048;-57
2021/03/21 08:06:29;;;;;;;4.60;1.55;;;;;;;34.72;5.79;97485.38;10541955;28;20567;-54
2021/03/21 08:11:32;;;;;;;4.93;1.80;;;;;;;34.13;5.41;97499.44;10542990;28;20056;-55
2021/03/21 08:16:41;;;;;;;5.30;1.95;;;;;;;34.27;5.55;97471.84;10555242;28;20044;-58
2021/03/21 08:21:44;;;;;;;5.65;1.80;;;;;;;35.06;4.99;97480.56;10557850;28;20152;-59
2021/03/21 08:26:46;;;;;;;5.22;1.55;;;;;;;35.10;4.81;97476.00;10542492;28;20112;-57
2021/03/21 08:32:05;;;;;;;7.28;1.70;;;;;;;35.34;4.95;97468.84;10542597;28;20044;-56
2021/03/21 08:37:22;;;;;;;5.18;1.40;;;;;;;35.56;4.68;97460.13;10542105;28;20050;-55
2021/03/21 08:42:37;;;;;;;4.13;1.50;;;;;;;35.83;4.80;97457.69;10541087;28;20056;-56
2021/03/21 08:47:39;;;;;;;3.60;1.33;;;;;;;37.91;3.81;97460.31;10540678;28;20044;-57
2021/03/21 08:52:44;;;;;;;5.13;1.70;;;;;;;38.16;3.69;97464.28;10540156;28;20062;-55
2021/03/21 08:57:48;;;;;;;4.03;1.65;;;;;;;36.00;3.98;97449.16;10540600;28;20059;-57
2021/03/21 09:02:51;;;;;;;3.53;1.50;;;;;;;33.89;4.54;97448.38;10542612;28;20445;-56
2021/03/21 09:08:05;;;;;;;3.80;1.67;;;;;;;33.25;4.84;97444.19;10543876;28;20384;-56
2021/03/21 09:13:17;;;;;;;6.55;1.55;;;;;;;32.86;5.09;97432.66;10541203;28;20373;-54
2021/03/21 09:18:25;;;;;;;4.00;1.70;;;;;;;32.07;5.42;97445.09;10562017;28;20132;-54
2021/03/21 09:23:42;;;;;;;4.85;1.50;;;;;;;30.67;5.81;97432.78;10550547;28;20492;-55
2021/03/21 09:28:58;;;;;;;4.75;1.52;;;;;;;29.77;5.98;97430.38;10549174;28;20116;-54
2021/03/21 09:34:03;;;;;;;6.18;1.73;;;;;;;28.56;6.35;97432.94;10548411;28;20054;-56
2021/03/21 09:39:13;;;;;;;4.20;1.60;;;;;;;27.24;6.56;97429.63;10550675;28;20093;-54
2021/03/21 09:44:36;;;;;;;4.00;1.40;;;;;;;25.53;7.33;97429.56;10547901;28;20048;-55
2021/03/21 09:49:47;;;;;;;4.88;1.60;;;;;;;25.36;7.90;97428.06;10551027;28;20383;-56
2021/03/21 09:54:58;;;;;;;5.53;1.80;;;;;;;25.15;7.95;97422.06;10549914;28;20062;-55
2021/03/21 10:00:04;;;;;;;5.85;1.95;;;;;;;21.46;9.26;97425.75;10548654;28;20094;-55
2021/03/21 10:05:24;;;;;;;4.20;1.60;;;;;;;17.66;11.23;97435.38;10555275;28;20056;-63
2021/03/21 10:10:32;;;;;;;4.20;1.80;;;;;;;16.28;12.04;97426.56;10550869;28;20449;-56
2021/03/21 10:16:06;;;;;;;4.78;1.70;;;;;;;15.73;12.55;97418.63;10547431;28;20143;-54
2021/03/21 10:21:08;;;;;;;5.07;1.90;;;;;;;14.98;12.67;97418.63;10546985;28;20058;-54
2021/03/21 10:26:11;;;;;;;4.00;1.38;;;;;;;14.20;13.39;97420.44;10545551;28;20071;-54
2021/03/21 10:31:38;;;;;;;4.60;1.85;;;;;;;13.38;14.45;97413.13;10546326;28;20048;-54
2021/03/21 10:36:46;;;;;;;4.43;1.67;;;;;;;12.72;14.84;97409.44;10543848;28;20066;-54
2021/03/21 10:41:54;;;;;;;4.82;1.73;;;;;;;12.31;15.35;97402.41;10544950;28;20131;-53
2021/03/21 10:46:56;;;;;;;5.35;1.95;;;;;;;11.53;16.00;97412.34;10546857;28;20188;-58
2021/03/21 10:52:25;;;;;;;4.38;1.67;;;;;;;11.43;16.51;97411.88;10547717;28;20134;-55
2021/03/21 10:57:43;;;;;;;4.30;1.50;;;;;;;11.00;17.15;97404.88;10546682;28;20472;-53
2021/03/21 11:02:46;;;;;;;6.28;1.58;;;;;;;10.62;17.60;97401.69;10547150;28;20382;-54
2021/03/21 11:07:48;;;;;;;5.68;1.70;;;;;;;10.60;17.56;97407.13;10545078;28;20047;-56
2021/03/21 11:12:53;;;;;;;4.43;1.25;;;;;;;10.36;17.99;97394.34;10546285;28;20052;-56
2021/03/21 11:18:00;;;;;;;3.78;1.55;;;;;;;10.44;18.46;97385.56;10545486;28;20052;-54
2021/03/21 11:23:08;;;;;;;7.07;1.70;;;;;;;10.32;18.30;97385.22;10544748;28;20109;-55
2021/03/21 11:28:26;;;;;;;4.70;1.23;;;;;;;10.23;18.89;97394.19;10545211;28;20135;-55
2021/03/21 11:33:32;;;;;;;3.95;1.40;;;;;;;10.16;18.95;97394.13;10546890;28;20193;-54
2021/03/21 11:38:38;;;;;;;5.63;2.00;;;;;;;9.74;19.39;97379.06;10552979;28;20058;-59
2021/03/21 11:43:41;;;;;;;7.75;1.70;;;;;;;9.69;19.86;97383.03;10545358;28;20469;-53
2021/03/21 11:48:44;;;;;;;6.07;1.67;;;;;;;9.56;20.25;97387.28;10544575;28;20044;-54
2021/03/21 11:53:48;;;;;;;4.78;1.77;;;;;;;9.03;21.11;97371.59;10545197;28;20142;-53
2021/03/21 11:58:54;;;;;;;4.75;1.50;;;;;;;8.70;21.66;97377.09;10547322;28;20044;-59
2021/03/21 12:04:00;;;;;;;5.10;2.00;;;;;;;8.52;22.10;97376.56;10546734;28;20161;-52
2021/03/21 12:09:13;;;;;;;4.10;1.75;;;;;;;8.28;22.65;97362.66;10545051;28;20048;-54
2021/03/21 12:14:24;;;;;;;4.47;1.73;;;;;;;8.55;22.26;97375.41;10546076;28;20047;-58
2021/03/21 12:19:31;;;;;;;5.28;2.25;;;;;;;8.91;21.95;97373.00;10543907;28;20040;-55
2021/03/21 12:24:35;;;;;;;6.95;2.35;;;;;;;9.02;21.93;97372.59;10541517;28;20480;-52
2021/03/21 12:29:43;;;;;;;4.07;1.63;;;;;;;9.29;22.01;97370.34;10542558;28;20040;-55
2021/03/21 12:34:47;;;;;;;6.45;1.52;;;;;;;9.19;22.20;97366.19;10542463;28;20051;-53
2021/03/21 12:39:51;;;;;;;4.45;1.23;;;;;;;9.08;22.48;97369.25;10543061;28;20043;-54
2021/03/21 12:45:14;;;;;;;6.80;1.52;;;;;;;9.30;22.47;97361.50;10542857;28;20048;-53
2021/03/21 12:50:44;;;;;;;5.40;1.55;;;;;;;8.72;23.22;97369.88;10541630;28;20040;-53
2021/03/21 12:55:46;;;;;;;4.88;1.30;;;;;;;8.56;23.49;97356.94;10534949;28;20531;-53
2021/03/21 13:00:50;;;;;;;7.10;1.67;;;;;;;8.15;23.71;97341.44;10541163;28;20059;-54
2021/03/21 13:05:52;;;;;;;5.05;2.00;;;;;;;8.00;24.36;97343.97;10541396;28;20078;-53
2021/03/21 13:10:55;;;;;;;5.78;2.00;;;;;;;7.81;24.79;97345.22;10543354;28;20103;-55
2021/03/21 13:15:58;;;;;;;5.93;2.20;;;;;;;7.56;25.17;97356.78;10543051;28;20052;-55
2021/03/21 13:21:03;;;;;;;5.10;1.50;;;;;;;7.24;25.78;97363.75;10542057;28;20040;-53
2021/03/21 13:26:05;;;;;;;4.93;1.88;;;;;;;6.85;26.43;97364.44;10542050;28;20464;-53
2021/03/21 13:31:08;;;;;;;6.25;1.75;;;;;;;6.90;26.14;97354.31;10540877;28;20374;-56
2021/03/21 13:36:10;;;;;;;6.23;2.20;;;;;;;6.73;26.82;97357.91;10540875;28;20063;-54
2021/03/21 13:41:11;;;;;;;4.45;1.63;;;;;;;6.41;28.29;97351.72;10540926;28;20074;-53
2021/03/21 13:46:14;;;;;;;4.97;1.60;;;;;;;6.18;29.30;97355.91;10543852;28;20044;-60
2021/03/21 13:51:15;;;;;;;4.75;1.77;;;;;;;6.09;29.15;97352.47;10546232;28;20052;-54
2021/03/21 13:56:17;;;;;;;4.80;2.00;;;;;;;6.15;29.01;97345.78;10540176;28;20044;-52
2021/03/21 14:01:20;;;;;;;4.90;1.77;;;;;;;6.27;29.14;97339.28;10545362;28;20052;-52
2021/03/21 14:06:22;;;;;;;5.05;1.98;;;;;;;6.05;30.00;97334.69;10548713;28;20059;-57
2021/03/21 14:11:24;;;;;;;4.68;1.85;;;;;;;5.93;30.31;97337.59;10550709;28;20050;-52
2021/03/21 14:16:27;;;;;;;8.20;2.00;;;;;;;5.71;30.99;97317.31;10546859;28;20044;-52
2021/03/21 14:21:28;;;;;;;4.25;1.95;;;;;;;5.20;32.67;97319.03;10523767;28;20072;-52
2021/03/21 14:26:30;;;;;;;4.47;2.30;;;;;;;4.89;33.32;97321.31;10505452;28;20074;-54
2021/03/21 14:31:32;;;;;;;4.30;1.60;;;;;;;4.59;34.26;97320.81;10509435;28;20047;-53
2021/03/21 14:36:34;;;;;;;5.57;1.90;;;;;;;4.57;34.12;97325.34;10513610;28;20054;-53
2021/03/21 14:41:36;;;;;;;4.10;1.60;;;;;;;4.54;34.31;97331.66;10500446;28;20591;-52
2021/03/21 14:46:38;;;;;;;4.72;1.95;;;;;;;4.39;35.48;97330.56;10504884;28;20170;-54
2021/03/21 14:51:40;;;;;;;5.05;1.58;;;;;;;4.49;34.91;97325.25;10504918;28;20450;-52
2021/03/21 14:56:41;;;;;;;4.07;1.30;;;;;;;4.38;36.01;97324.53;10504440;28;20044;-52
2021/03/21 15:01:44;;;;;;;7.65;2.30;;;;;;;4.05;37.27;97323.41;10511166;28;20055;-53
2021/03/21 15:06:46;;;;;;;5.35;1.60;;;;;;;3.80;38.21;97324.97;10544613;28;20048;-52
2021/03/21 15:11:47;;;;;;;5.90;2.05;;;;;;;3.61;39.04;97315.50;10544690;28;20105;-59
2021/03/21 15:16:50;;;;;;;5.50;1.30;;;;;;;3.52;38.79;97305.97;10544665;28;20117;-53
2021/03/21 15:21:52;;;;;;;4.53;1.73;;;;;;;3.43;40.24;97293.84;10545349;28;20095;-54
2021/03/21 15:26:54;;;;;;;7.57;2.00;;;;;;;3.32;40.66;97315.63;10545724;28;20044;-54
2021/03/21 15:31:57;;;;;;;4.70;1.77;;;;;;;3.16;41.25;97312.84;10544241;28;20496;-54
2021/03/21 15:36:59;;;;;;;6.50;2.20;;;;;;;3.18;41.58;97311.75;10544880;28;20055;-53
2021/03/21 15:42:01;;;;;;;5.60;2.08;;;;;;;3.09;41.77;97307.41;10544770;28;20047;-53
2021/03/21 15:47:04;;;;;;;5.13;1.67;;;;;;;2.95;42.92;97310.44;10543828;28;20073;-53
2021/03/21 15:52:06;;;;;;;8.23;2.80;;;;;;;2.84;43.66;97305.44;10522764;28;20388;-54
2021/03/21 15:57:08;;;;;;;3.95;1.38;;;;;;;2.81;43.87;97305.72;10504717;28;20067;-53
2021/03/21 16:02:10;;;;;;;4.38;1.40;;;;;;;2.68;44.79;97317.22;10502752;28;20059;-54
2021/03/21 16:07:12;;;;;;;6.65;1.85;;;;;;;2.63;44.71;97319.41;10506652;28;20048;-59
2021/03/21 16:12:14;;;;;;;7.03;1.88;;;;;;;2.70;44.74;97311.88;10509786;28;20063;-51
2021/03/21 16:17:17;;;;;;;2.80;1.00;;;;;;;2.67;44.64;97310.38;10508784;28;20449;-53
2021/03/21 16:22:19;;;;;;;6.00;1.90;;;;;;;2.61;45.39;97300.56;10502764;28;20456;-52
2021/03/21 16:27:21;;;;;;;6.05;2.35;;;;;;;2.62;45.33;97304.00;10503396;28;20082;-60
2021/03/21 16:32:24;;;;;;;4.85;1.63;;;;;;;2.55;45.93;97306.31;10503295;28;20067;-52
2021/03/21 16:37:25;;;;;;;4.35;1.63;;;;;;;2.54;46.03;97308.09;10499951;28;20048;-52
2021/03/21 16:42:27;;;;;;;7.85;2.15;;;;;;;2.50;46.82;97298.13;10499646;28;20056;-53
2021/03/21 16:47:30;;;;;;;6.40;1.90;;;;;;;2.40;47.03;97302.50;10501114;28;20055;-52
2021/03/21 16:52:31;;;;;;;7.50;2.30;;;;;;;2.36;48.00;97301.16;10500648;28;20097;-52
2021/03/21 16:57:33;;;;;;;7.53;2.13;;;;;;;2.31;48.34;97309.34;10500157;28;20646;-54
2021/03/21 17:02:36;;;;;;;8.60;2.00;;;;;;;2.24;48.36;97301.28;10500112;28;20049;-52
2021/03/21 17:07:38;;;;;;;5.68;1.83;;;;;;;2.18;49.34;97296.66;10499989;28;20056;-53
2021/03/21 17:12:41;;;;;;;9.35;2.38;;;;;;;2.26;49.21;97293.38;10500826;28;20131;-51
2021/03/21 17:17:43;;;;;;;5.32;2.60;;;;;;;2.27;49.82;97303.59;10499018;28;20526;-52
2021/03/21 17:22:46;;;;;;;7.07;2.30;;;;;;;2.20;50.49;97299.94;10498830;28;20075;-55
2021/03/21 17:27:48;;;;;;;6.10;2.30;;;;;;;2.24;49.90;97288.31;10498818;28;20102;-52
2021/03/21 17:32:50;;;;;;;5.38;2.60;;;;;;;2.38;49.20;97288.88;10499369;28;20048;-54
2021/03/21 17:37:52;;;;;;;6.20;2.40;;;;;;;2.42;49.52;97285.03;10506343;28;20051;-54
2021/03/21 17:42:54;;;;;;;5.85;1.98;;;;;;;2.43;49.86;97279.72;10520313;28;20120;-53
2021/03/21 17:47:57;;;;;;;6.22;2.70;;;;;;;2.37;50.55;97279.44;10507275;28;20465;-59
2021/03/21 17:52:59;;;;;;;6.07;2.47;;;;;;;2.41;50.08;97267.84;10505647;28;20079;-52
2021/03/21 17:58:01;;;;;;;6.25;2.58;;;;;;;2.45;50.38;97269.22;10506125;28;20051;-55
2021/03/21 18:03:04;;;;;;;7.10;2.75;;;;;;;2.52;49.63;97259.91;10506573;28;20051;-55
2021/03/21 18:08:06;;;;;;;4.17;1.93;;;;;;;2.51;49.97;97258.28;10507975;28;20129;-55
2021/03/21 18:13:08;;;;;;;7.85;2.30;;;;;;;2.44;50.50;97245.06;10509051;28;20136;-51
2021/03/21 18:18:11;;;;;;;7.95;3.30;;;;;;;2.47;50.00;97256.94;10508701;28;20055;-56
2021/03/21 18:23:14;;;;;;;5.97;2.97;;;;;;;2.59;49.63;97245.44;10507627;28;20463;-53
2021/03/21 18:28:16;;;;;;;7.15;2.70;;;;;;;2.67;49.68;97235.16;10509496;28;20048;-61
2021/03/21 18:33:24;;;;;;;6.55;2.42;;;;;;;2.80;49.75;97239.22;10507254;28;20072;-51
2021/03/21 18:38:26;;;;;;;6.35;2.50;;;;;;;2.85;49.32;97237.00;10505052;28;20051;-53
2021/03/21 18:43:27;;;;;;;5.60;2.20;;;;;;;2.77;49.55;97242.91;10504706;28;20048;-52
2021/03/21 18:48:30;;;;;;;5.32;2.28;;;;;;;2.68;50.15;97234.22;10502332;28;20102;-55
2021/03/21 18:53:35;;;;;;;5.90;2.40;;;;;;;2.75;49.82;97227.47;10504327;28;20052;-51
2021/03/21 18:58:37;;;;;;;5.13;2.30;;;;;;;2.79;49.26;97222.81;10503980;28;20151;-53
2021/03/21 19:03:40;;;;;;;7.03;2.83;;;;;;;2.85;49.44;97221.44;10503514;28;20156;-52
2021/03/21 19:08:42;;;;;;;5.72;2.65;;;;;;;2.90;49.26;97211.47;10504732;28;20051;-52
2021/03/21 19:13:44;;;;;;;6.00;2.97;;;;;;;2.95;48.75;97214.41;10504150;28;20273;-52
2021/03/21 19:18:46;;;;;;;10.32;1.95;;;;;;;2.98;49.21;97229.72;10503041;28;20052;-60
2021/03/21 19:23:48;;;;;;;7.72;2.72;;;;;;;2.98;48.86;97214.13;10501864;28;20452;-51
2021/03/21 19:28:50;;;;;;;8.80;2.65;;;;;;;3.14;48.33;97211.75;10503687;28;20053;-52
2021/03/21 19:33:52;;;;;;;7.13;3.38;;;;;;;3.22;47.81;97219.63;10502483;28;20064;-52
2021/03/21 19:38:54;;;;;;;8.65;2.20;;;;;;;3.33;47.50;97216.00;10507672;28;20377;-53
2021/03/21 19:43:56;;;;;;;6.47;2.67;;;;;;;3.18;48.66;97220.06;10503477;28;20051;-51
2021/03/21 19:48:58;;;;;;;7.10;2.90;;;;;;;3.15;48.57;97210.78;10500313;28;20049;-52
2021/03/21 19:54:01;;;;;;;8.65;2.90;;;;;;;3.36;47.57;97207.13;10501279;28;20064;-52
2021/03/21 19:59:03;;;;;;;6.53;2.70;;;;;;;3.31;47.61;97209.31;10500868;28;20049;-53
2021/03/21 20:04:05;;;;;;;9.02;2.80;;;;;;;3.35;47.86;97211.47;10502336;28;20503;-56
2021/03/21 20:09:08;;;;;;;7.40;2.65;;;;;;;3.34;47.29;97217.63;10501529;28;20044;-55
2021/03/21 20:14:09;;;;;;;5.75;2.38;;;;;;;3.36;47.13;97213.13;10501361;28;20060;-53
2021/03/21 20:19:11;;;;;;;6.50;3.72;;;;;;;3.51;46.68;97207.41;10500992;28;20171;-54
2021/03/21 20:24:13;;;;;;;7.60;3.15;;;;;;;3.49;47.11;97202.38;10499954;28;20075;-53
2021/03/21 20:29:15;;;;;;;8.32;3.20;;;;;;;3.41;47.25;97195.31;10501471;28;20572;-54
2021/03/21 20:34:17;;;;;;;5.53;2.90;;;;;;;3.42;47.29;97201.34;10502975;28;20048;-52
2021/03/21 20:39:19;;;;;;;5.28;2.45;;;;;;;3.40;46.82;97200.66;10503055;28;20055;-53
2021/03/21 20:44:21;;;;;;;8.95;3.03;;;;;;;3.44;47.02;97186.41;10499935;28;20135;-53
2021/03/21 20:49:22;;;;;;;6.72;3.08;;;;;;;3.50;46.88;97193.59;10499665;28;20044;-54
2021/03/21 20:54:25;;;;;;;7.88;2.78;;;;;;;3.51;47.16;97195.25;10499999;28;20060;-53
2021/03/21 20:59:27;;;;;;;8.38;2.90;;;;;;;3.44;46.75;97189.00;10499548;28;20056;-53
2021/03/21 21:04:28;;;;;;;7.97;3.10;;;;;;;3.31;47.13;97178.16;10499018;28;20056;-54
2021/03/21 21:09:31;;;;;;;7.30;2.75;;;;;;;3.37;46.78;97187.97;10504051;28;20071;-53
2021/03/21 21:14:32;;;;;;;5.40;2.78;;;;;;;3.39;46.97;97183.44;10508957;28;20040;-55
2021/03/21 21:19:34;;;;;;;7.10;2.90;;;;;;;3.44;47.02;97173.41;10507238;28;20385;-53
2021/03/21 21:24:37;;;;;;;7.57;2.80;;;;;;;3.47;46.93;97175.72;10506713;28;20060;-53
2021/03/21 21:29:39;;;;;;;7.35;2.90;;;;;;;3.46;46.83;97171.50;10506913;28;20048;-53
2021/03/21 21:34:41;;;;;;;9.18;3.17;;;;;;;3.47;46.64;97173.13;10507502;28;20405;-53
2021/03/21 21:39:45;;;;;;;7.03;2.83;;;;;;;3.33;46.99;97161.47;10507859;28;20047;-53
2021/03/21 21:44:47;;;;;;;5.47;2.38;;;;;;;3.25;47.49;97163.16;10508134;28;20067;-53
2021/03/21 21:49:48;;;;;;;6.78;3.22;;;;;;;3.34;47.00;97175.28;10506596;28;20113;-53
2021/03/21 21:54:51;;;;;;;6.72;2.95;;;;;;;3.34;47.02;97167.50;10505927;28;20052;-54
2021/03/21 21:59:53;;;;;;;6.53;2.47;;;;;;;3.25;47.37;97163.16;10506211;28;20052;-54
2021/03/21 22:04:54;;;;;;;6.35;2.78;;;;;;;3.22;47.02;97159.09;10505135;28;20052;-53
2021/03/21 22:09:57;;;;;;;7.28;3.17;;;;;;;3.24;47.03;97154.56;10506171;28;20434;-55
2021/03/21 22:14:58;;;;;;;5.90;2.60;;;;;;;3.25;47.45;97150.19;10504433;28;20068;-53
2021/03/21 22:20:00;;;;;;;7.57;3.22;;;;;;;3.29;47.11;97159.31;10504404;28;20044;-52
2021/03/21 22:25:04;;;;;;;6.97;2.88;;;;;;;3.34;47.59;97155.31;10506187;28;20217;-55
2021/03/21 22:30:06;;;;;;;;;;;;;;;3.26;47.27;97159.59;10508796;28;20398;-54
2021/03/21 22:35:11;;;;;;;6.88;2.65;;;;;;;3.16;48.00;97150.09;10506114;28;19928;-53
2021/03/21 22:40:15;;;;;;;7.82;3.50;;;;;;;3.25;47.65;97145.00;10505524;28;20063;-54
2021/03/21 22:45:17;;;;;;;;;;;;;;;3.44;46.78;97137.88;10505408;28;20128;-55
2021/03/21 22:50:20;;;;;;;6.55;2.67;;;;;;;3.46;46.93;97138.53;10506157;28;19928;-59
2021/03/21 22:55:23;;;;;;;6.40;2.73;;;;;;;3.41;47.21;97142.53;10504143;28;20044;-53
2021/03/21 23:00:29;;;;;;;7.30;3.23;;;;;;;3.49;47.18;97147.81;10504299;28;20090;-54
2021/03/21 23:05:32;;;;;;;7.90;3.30;;;;;;;3.54;46.95;97147.38;10503144;28;20048;-52
2021/03/21 23:10:37;;;;;;;6.20;3.07;;;;;;;3.48;46.79;97141.00;10503856;28;20063;-53
2021/03/21 23:15:39;;;;;;;6.22;2.60;;;;;;;3.50;47.01;97144.25;10504795;28;20053;-53
2021/03/21 23:20:42;;;;;;;7.57;3.65;;;;;;;3.49;47.18;97158.22;10503194;28;20040;-52
2021/03/21 23:25:45;;;;;;;7.45;3.35;;;;;;;3.52;47.12;97149.31;10502661;28;20052;-53
2021/03/21 23:30:47;;;;;;;8.55;3.90;;;;;;;3.62;46.49;97145.66;10501801;28;20139;-52
2021/03/21 23:35:49;;;;;;;8.20;3.22;;;;;;;3.66;46.51;97149.59;10501314;28;20075;-55
2021/03/21 23:40:53;;;;;;;11.18;3.28;;;;;;;3.61;47.05;97148.41;10502728;28;20067;-54
2021/03/21 23:45:55;;;;;;;7.25;3.95;;;;;;;3.67;46.34;97138.25;10503602;28;20137;-56
2021/03/21 23:51:00;;;;;;;6.10;3.00;;;;;;;3.77;46.52;97137.34;10501500;28;20044;-55
2021/03/21 23:56:02;;;;;;;7.68;3.47;;;;;;;3.83;46.39;97128.94;10501075;28;20366;-53
